Time;durP1;ratioP1;P1;durP2;ratioP2;P2;SDS_P1;SDS_P2;PMS_P1;PMS_P2;Temp;Humidity;BMP_temperature;BMP_pressure;BME280_temperature;BME280_humidity;BME280_pressure;Samples;Min_cycle;Max_cycle;Signal;HPM_P1;HPM_P2
2023/04/07 00:01:58;;;;;;;24.17;19.55;;;;;;;;;;5000413;28;20053;-88
2023/04/07 00:04:25;;;;;;;23.75;19.73;;;;;;;;;;4999893;28;20457;-88
2023/04/07 00:06:51;;;;;;;23.52;18.60;;;;;;;;;;5004570;28;20057;-85
2023/04/07 00:09:17;;;;;;;23.65;19.73;;;;;;;;;;5023876;28;20045;-84
2023/04/07 00:11:43;;;;;;;24.90;19.98;;;;;;;;;;5010382;28;20505;-86
2023/04/07 00:14:09;;;;;;;22.55;19.45;;;;;;;;;;5002449;28;20042;-87
2023/04/07 00:16:35;;;;;;;24.08;20.20;;;;;;;;;;4999530;28;20112;-88
2023/04/07 00:19:02;;;;;;;24.95;20.67;;;;;;;;;;5001947;28;20509;-88
2023/04/07 00:21:28;;;;;;;24.67;19.90;;;;;;;;;;5003936;28;20050;-88
2023/04/07 00:23:55;;;;;;;25.83;20.90;;;;;;;;;;5003040;28;20109;-88
2023/04/07 00:26:21;;;;;;;24.15;20.45;;;;;;;;;;5000905;28;20052;-87
2023/04/07 00:28:48;;;;;;;27.08;20.30;;;;;;;;;;5001350;28;20065;-87
2023/04/07 00:31:14;;;;;;;25.55;20.63;;;;;;;;;;4985587;28;20408;-85
2023/04/07 00:33:40;;;;;;;23.73;20.42;;;;;;;;;;4982684;28;20057;-87
2023/04/07 00:36:06;;;;;;;22.92;20.42;;;;;;;;;;5000361;28;20038;-88
2023/04/07 00:38:32;;;;;;;25.10;20.00;;;;;;;;;;4998139;28;20065;-87
2023/04/07 00:40:59;;;;;;;26.90;21.45;;;;;;;;;;5000402;28;20500;-87
2023/04/07 00:43:25;;;;;;;24.70;21.55;;;;;;;;;;4999651;28;20034;-88
2023/04/07 00:45:52;;;;;;;24.65;21.70;;;;;;;;;;4983125;28;20070;-88
2023/04/07 00:48:18;;;;;;;24.48;21.20;;;;;;;;;;5000519;28;20054;-87
2023/04/07 00:50:45;;;;;;;25.38;22.00;;;;;;;;;;4984700;28;20094;-87
2023/04/07 00:53:11;;;;;;;25.40;21.40;;;;;;;;;;5006902;28;20049;-88
2023/04/07 00:55:38;;;;;;;24.80;20.77;;;;;;;;;;5003891;28;20042;-88
2023/04/07 00:58:04;;;;;;;27.70;21.50;;;;;;;;;;5006597;28;20050;-87
2023/04/07 01:00:32;;;;;;;25.45;21.52;;;;;;;;;;5006861;28;20046;-88
2023/04/07 01:03:01;;;;;;;24.45;20.98;;;;;;;;;;5004803;28;20057;-87
2023/04/07 01:05:27;;;;;;;27.73;22.73;;;;;;;;;;5005533;28;20046;-87
2023/04/07 01:07:53;;;;;;;27.38;22.95;;;;;;;;;;5006047;28;20042;-88
2023/04/07 01:10:22;;;;;;;26.10;21.92;;;;;;;;;;5003425;28;20057;-88
2023/04/07 01:12:51;;;;;;;25.88;22.27;;;;;;;;;;5005006;28;20055;-88
2023/04/07 01:15:21;;;;;;;26.63;21.92;;;;;;;;;;5005305;28;20054;-88
2023/04/07 01:17:49;;;;;;;24.75;22.05;;;;;;;;;;5003805;28;20073;-88
2023/04/07 01:20:17;;;;;;;28.23;22.60;;;;;;;;;;5004056;28;20090;-88
2023/04/07 01:22:56;;;;;;;28.45;23.67;;;;;;;;;;5004626;28;20061;-89
2023/04/07 01:25:22;;;;;;;27.33;22.80;;;;;;;;;;5004047;28;20085;-89
2023/04/07 01:27:54;;;;;;;27.27;23.30;;;;;;;;;;5002351;28;20042;-89
2023/04/07 01:30:21;;;;;;;26.70;23.13;;;;;;;;;;5002381;28;20048;-89
2023/04/07 01:32:50;;;;;;;29.77;23.23;;;;;;;;;;5002609;28;20042;-89
2023/04/07 01:35:17;;;;;;;31.15;25.65;;;;;;;;;;5004045;28;20042;-89
2023/04/07 01:37:45;;;;;;;29.83;24.90;;;;;;;;;;4991562;28;20045;-88
2023/04/07 01:40:12;;;;;;;29.08;24.67;;;;;;;;;;5005475;28;20050;-88
2023/04/07 01:42:39;;;;;;;29.70;24.63;;;;;;;;;;5005067;28;20053;-88
2023/04/07 01:45:06;;;;;;;30.95;25.27;;;;;;;;;;5004252;28;20055;-89
2023/04/07 01:47:32;;;;;;;29.90;23.40;;;;;;;;;;5001776;28;20050;-87
2023/04/07 01:49:59;;;;;;;29.08;24.48;;;;;;;;;;4991062;28;20038;-87
2023/04/07 01:52:29;;;;;;;29.52;23.70;;;;;;;;;;5002126;28;20053;-88
2023/04/07 01:54:56;;;;;;;30.33;24.98;;;;;;;;;;5005052;28;20052;-89
2023/04/07 01:57:22;;;;;;;29.42;23.65;;;;;;;;;;5002077;28;20512;-88
2023/04/07 01:59:48;;;;;;;29.75;25.25;;;;;;;;;;4988867;28;20057;-89
2023/04/07 02:02:14;;;;;;;29.50;24.90;;;;;;;;;;5005142;28;20104;-88
2023/04/07 02:04:47;;;;;;;31.02;24.38;;;;;;;;;;5004519;28;20092;-88
2023/04/07 02:07:18;;;;;;;31.52;25.25;;;;;;;;;;5001854;28;20089;-89
2023/04/07 02:09:45;;;;;;;29.70;24.23;;;;;;;;;;5000413;28;20043;-88
2023/04/07 02:12:12;;;;;;;31.80;25.65;;;;;;;;;;5001380;28;20098;-89
2023/04/07 02:14:39;;;;;;;32.80;24.20;;;;;;;;;;5002692;28;20082;-89
2023/04/07 02:17:06;;;;;;;30.25;24.42;;;;;;;;;;5001961;28;20053;-89
2023/04/07 02:19:35;;;;;;;33.65;25.85;;;;;;;;;;4999879;28;20059;-89
2023/04/07 02:22:05;;;;;;;29.85;25.27;;;;;;;;;;4998087;28;20043;-89
2023/04/07 02:24:31;;;;;;;29.75;24.77;;;;;;;;;;4991544;28;20066;-89
2023/04/07 02:26:59;;;;;;;29.48;24.75;;;;;;;;;;4988528;28;20069;-88
2023/04/07 02:29:26;;;;;;;34.63;25.73;;;;;;;;;;4997544;28;20050;-88
2023/04/07 02:31:52;;;;;;;31.58;24.65;;;;;;;;;;5002124;28;20050;-87
2023/04/07 02:34:18;;;;;;;28.58;23.83;;;;;;;;;;5003140;28;20065;-88
2023/04/07 02:36:44;;;;;;;28.95;24.02;;;;;;;;;;5004060;28;20068;-86
2023/04/07 02:39:10;;;;;;;30.38;23.65;;;;;;;;;;5018796;28;20023;-86
2023/04/07 02:41:36;;;;;;;31.20;23.67;;;;;;;;;;5018320;28;20081;-85
2023/04/07 02:44:02;;;;;;;30.27;23.60;;;;;;;;;;5005692;28;20050;-87
2023/04/07 02:46:28;;;;;;;29.00;23.40;;;;;;;;;;5001694;28;20043;-87
2023/04/07 02:48:54;;;;;;;27.48;22.63;;;;;;;;;;5000611;28;20125;-87
2023/04/07 02:51:21;;;;;;;28.50;23.92;;;;;;;;;;5002055;28;20042;-87
2023/04/07 02:53:47;;;;;;;30.73;24.15;;;;;;;;;;5001999;28;20117;-88
2023/04/07 02:56:13;;;;;;;29.55;23.20;;;;;;;;;;5003929;28;20046;-88
2023/04/07 02:58:39;;;;;;;28.67;23.70;;;;;;;;;;5004571;28;20050;-88
2023/04/07 03:01:05;;;;;;;34.35;24.85;;;;;;;;;;5002647;28;20106;-87
2023/04/07 03:03:31;;;;;;;28.05;22.45;;;;;;;;;;5002471;28;20053;-87
2023/04/07 03:05:57;;;;;;;29.98;24.55;;;;;;;;;;4996678;28;20053;-87
2023/04/07 03:08:23;;;;;;;31.48;25.00;;;;;;;;;;4997570;28;20050;-87
2023/04/07 03:10:49;;;;;;;29.90;24.48;;;;;;;;;;4996393;28;20058;-87
2023/04/07 03:13:18;;;;;;;31.77;25.55;;;;;;;;;;5001240;28;20073;-88
2023/04/07 03:15:44;;;;;;;27.58;22.88;;;;;;;;;;5003200;28;20078;-88
2023/04/07 03:18:10;;;;;;;30.77;24.50;;;;;;;;;;5001236;28;20050;-88
2023/04/07 03:20:36;;;;;;;30.88;23.98;;;;;;;;;;5000044;28;20050;-88
2023/04/07 03:23:03;;;;;;;31.67;24.02;;;;;;;;;;4992269;28;20580;-89
2023/04/07 03:25:29;;;;;;;30.92;25.48;;;;;;;;;;5001336;28;20046;-88
2023/04/07 03:27:55;;;;;;;30.92;24.80;;;;;;;;;;4996640;28;20046;-86
2023/04/07 03:30:21;;;;;;;30.20;24.73;;;;;;;;;;4993994;28;20045;-86
2023/04/07 03:32:47;;;;;;;33.10;27.00;;;;;;;;;;5001070;28;20560;-87
2023/04/07 03:35:13;;;;;;;36.28;26.33;;;;;;;;;;4999774;28;20551;-87
2023/04/07 03:37:39;;;;;;;33.10;26.10;;;;;;;;;;4999622;28;20421;-88
2023/04/07 03:40:06;;;;;;;31.67;25.55;;;;;;;;;;4999377;28;20382;-88
2023/04/07 03:42:32;;;;;;;33.45;25.58;;;;;;;;;;4999940;28;20628;-86
2023/04/07 03:44:58;;;;;;;30.30;23.73;;;;;;;;;;5006994;28;20512;-88
2023/04/07 03:47:24;;;;;;;29.55;24.17;;;;;;;;;;5002341;28;20113;-86
2023/04/07 03:49:50;;;;;;;28.95;22.63;;;;;;;;;;4997880;28;20052;-88
2023/04/07 03:52:16;;;;;;;29.00;22.95;;;;;;;;;;4998373;28;20046;-87
2023/04/07 03:54:42;;;;;;;29.10;23.60;;;;;;;;;;4997210;28;20053;-87
2023/04/07 03:57:09;;;;;;;28.33;22.58;;;;;;;;;;4998141;28;20053;-87
2023/04/07 03:59:35;;;;;;;27.42;22.15;;;;;;;;;;4998335;28;20042;-86
2023/04/07 04:02:01;;;;;;;30.83;23.95;;;;;;;;;;5015485;28;20053;-87
2023/04/07 04:04:27;;;;;;;29.92;24.10;;;;;;;;;;5018251;28;20048;-86
2023/04/07 04:06:53;;;;;;;28.38;22.83;;;;;;;;;;5019257;28;20088;-87
2023/04/07 04:09:19;;;;;;;29.40;22.70;;;;;;;;;;5015686;28;20503;-86
2023/04/07 04:11:46;;;;;;;30.05;23.92;;;;;;;;;;4998951;28;20058;-87
2023/04/07 04:14:12;;;;;;;29.65;23.90;;;;;;;;;;4995740;28;20074;-86
2023/04/07 04:16:38;;;;;;;28.92;22.92;;;;;;;;;;4997894;28;20047;-87
2023/04/07 04:19:04;;;;;;;30.67;23.67;;;;;;;;;;4997209;28;20061;-87
2023/04/07 04:21:30;;;;;;;29.77;22.10;;;;;;;;;;4996424;28;20097;-87
2023/04/07 04:23:56;;;;;;;31.13;23.45;;;;;;;;;;4997741;28;20042;-88
2023/04/07 04:26:24;;;;;;;30.85;23.90;;;;;;;;;;4992674;28;20050;-87
2023/04/07 04:28:51;;;;;;;32.58;24.33;;;;;;;;;;4999075;28;20046;-87
2023/04/07 04:31:17;;;;;;;29.98;22.92;;;;;;;;;;4996134;28;20042;-86
2023/04/07 04:33:44;;;;;;;28.25;22.67;;;;;;;;;;4996782;28;20050;-87
2023/04/07 04:36:10;;;;;;;28.15;21.65;;;;;;;;;;5000465;28;20050;-86
2023/04/07 04:38:36;;;;;;;27.67;21.83;;;;;;;;;;4998883;28;20046;-88
2023/04/07 04:41:02;;;;;;;29.10;24.23;;;;;;;;;;4999270;28;20058;-87
2023/04/07 04:43:28;;;;;;;28.80;23.58;;;;;;;;;;4998540;28;20472;-88
2023/04/07 04:45:55;;;;;;;30.45;23.02;;;;;;;;;;4999087;28;20381;-88
2023/04/07 04:48:21;;;;;;;28.15;22.30;;;;;;;;;;5000104;28;20400;-89
2023/04/07 04:50:47;;;;;;;30.20;23.55;;;;;;;;;;4999168;28;20046;-88
2023/04/07 04:53:13;;;;;;;28.83;23.45;;;;;;;;;;5001266;28;20428;-88
2023/04/07 04:55:41;;;;;;;31.55;23.85;;;;;;;;;;4999877;28;20050;-85
2023/04/07 04:58:07;;;;;;;31.77;24.30;;;;;;;;;;4998550;28;20408;-88
2023/04/07 05:00:33;;;;;;;29.02;23.23;;;;;;;;;;5000590;28;20100;-88
2023/04/07 05:03:00;;;;;;;29.35;22.70;;;;;;;;;;5001266;28;20045;-87
2023/04/07 05:05:26;;;;;;;30.15;24.50;;;;;;;;;;5001436;28;20081;-89
2023/04/07 05:07:52;;;;;;;28.92;23.02;;;;;;;;;;5003487;28;20085;-86
2023/04/07 05:10:18;;;;;;;30.55;23.75;;;;;;;;;;5017657;28;20036;-85
2023/04/07 05:12:44;;;;;;;32.78;24.50;;;;;;;;;;5018732;28;20132;-85
2023/04/07 05:15:11;;;;;;;29.80;24.73;;;;;;;;;;5005388;28;20074;-88
2023/04/07 05:17:37;;;;;;;34.80;24.67;;;;;;;;;;4986493;28;20153;-88
2023/04/07 05:20:03;;;;;;;30.92;24.73;;;;;;;;;;5004498;28;20406;-88
2023/04/07 05:22:30;;;;;;;30.90;24.10;;;;;;;;;;5002325;28;20046;-88
2023/04/07 05:24:56;;;;;;;33.90;25.60;;;;;;;;;;5003040;28;20511;-89
2023/04/07 05:27:22;;;;;;;31.38;25.08;;;;;;;;;;5002130;28;20492;-87
2023/04/07 05:29:48;;;;;;;31.40;24.50;;;;;;;;;;5002921;28;20042;-88
2023/04/07 05:32:14;;;;;;;31.73;24.75;;;;;;;;;;5003993;28;20034;-88
2023/04/07 05:34:40;;;;;;;31.95;24.90;;;;;;;;;;5005274;28;20132;-88
2023/04/07 05:37:06;;;;;;;31.80;24.05;;;;;;;;;;4984993;28;20038;-88
2023/04/07 05:39:33;;;;;;;31.35;22.73;;;;;;;;;;5004734;28;20050;-89
2023/04/07 05:42:00;;;;;;;30.40;23.50;;;;;;;;;;5004060;28;20057;-88
2023/04/07 05:44:26;;;;;;;25.40;20.88;;;;;;;;;;5001023;28;20088;-88
2023/04/07 05:46:52;;;;;;;27.70;22.88;;;;;;;;;;5001609;28;20049;-90
2023/04/07 05:49:18;;;;;;;29.25;23.63;;;;;;;;;;5002923;28;20038;-89
2023/04/07 05:51:44;;;;;;;28.08;23.27;;;;;;;;;;5000829;28;20050;-88
2023/04/07 05:54:10;;;;;;;28.85;23.70;;;;;;;;;;4990632;28;20042;-87
2023/04/07 05:56:36;;;;;;;29.42;23.77;;;;;;;;;;4994673;28;20072;-86
2023/04/07 05:59:03;;;;;;;28.13;22.17;;;;;;;;;;4993392;28;20053;-89
2023/04/07 06:01:29;;;;;;;28.95;24.15;;;;;;;;;;4993108;28;20381;-88
2023/04/07 06:03:57;;;;;;;27.75;23.17;;;;;;;;;;4993701;28;20043;-87
2023/04/07 06:06:23;;;;;;;28.33;23.50;;;;;;;;;;4993200;28;20416;-88
2023/04/07 06:08:49;;;;;;;32.97;23.05;;;;;;;;;;5001576;28;20097;-89
2023/04/07 06:11:15;;;;;;;28.50;23.80;;;;;;;;;;4995956;28;20055;-88
2023/04/07 06:13:41;;;;;;;30.08;23.90;;;;;;;;;;4997765;28;20061;-88
2023/04/07 06:16:07;;;;;;;30.38;24.38;;;;;;;;;;4991382;28;20046;-88
2023/04/07 06:18:34;;;;;;;27.05;22.63;;;;;;;;;;4993131;28;20050;-87
2023/04/07 06:21:00;;;;;;;30.13;23.15;;;;;;;;;;4995118;28;20118;-86
2023/04/07 06:23:26;;;;;;;26.65;21.95;;;;;;;;;;5009236;28;20039;-88
2023/04/07 06:25:52;;;;;;;26.45;22.55;;;;;;;;;;4988996;28;20039;-88
2023/04/07 06:28:19;;;;;;;28.17;22.27;;;;;;;;;;4996889;28;20093;-88
2023/04/07 06:30:45;;;;;;;28.75;23.23;;;;;;;;;;4993603;28;20644;-88
2023/04/07 06:33:11;;;;;;;25.33;21.58;;;;;;;;;;5000844;28;20159;-88
2023/04/07 06:35:38;;;;;;;28.55;23.08;;;;;;;;;;4998640;28;20073;-88
2023/04/07 06:38:05;;;;;;;29.38;22.42;;;;;;;;;;5002078;28;20039;-90
2023/04/07 06:40:31;;;;;;;28.05;22.90;;;;;;;;;;4993145;28;20046;-89
2023/04/07 06:42:57;;;;;;;28.35;23.50;;;;;;;;;;4992523;28;20046;-90
2023/04/07 06:45:23;;;;;;;31.25;25.10;;;;;;;;;;5003890;28;20058;-90
2023/04/07 06:47:50;;;;;;;39.42;28.88;;;;;;;;;;5002693;28;20138;-89
2023/04/07 06:50:19;;;;;;;57.97;41.83;;;;;;;;;;5001667;28;20046;-90
2023/04/07 06:52:45;;;;;;;30.77;23.70;;;;;;;;;;5001565;28;20453;-90
2023/04/07 06:55:11;;;;;;;30.73;24.88;;;;;;;;;;5003515;28;20405;-89
2023/04/07 06:57:37;;;;;;;26.98;23.13;;;;;;;;;;4969780;28;20050;-88
2023/04/07 07:00:06;;;;;;;31.63;26.98;;;;;;;;;;5002444;28;20412;-89
2023/04/07 07:02:32;;;;;;;26.73;21.90;;;;;;;;;;5001753;28;20520;-89
2023/04/07 07:04:58;;;;;;;27.88;23.58;;;;;;;;;;4999961;28;20054;-89
2023/04/07 07:07:25;;;;;;;24.50;19.83;;;;;;;;;;5001657;28;20358;-88
2023/04/07 07:09:51;;;;;;;25.27;21.35;;;;;;;;;;5002426;28;20054;-90
2023/04/07 07:12:17;;;;;;;24.90;22.20;;;;;;;;;;5000204;28;20130;-88
2023/04/07 07:14:43;;;;;;;22.27;19.65;;;;;;;;;;4999846;28;20054;-89
2023/04/07 07:17:09;;;;;;;22.17;19.80;;;;;;;;;;4999879;28;20043;-89
2023/04/07 07:19:36;;;;;;;21.52;18.45;;;;;;;;;;4997345;28;20053;-88
2023/04/07 07:22:03;;;;;;;21.67;18.55;;;;;;;;;;4998132;28;20050;-87
2023/04/07 07:24:29;;;;;;;20.98;18.45;;;;;;;;;;4999371;28;20039;-89
2023/04/07 07:26:56;;;;;;;19.83;16.70;;;;;;;;;;5002912;28;20065;-88
2023/04/07 07:29:22;;;;;;;19.38;16.45;;;;;;;;;;4999763;28;20057;-89
2023/04/07 07:31:48;;;;;;;20.58;16.77;;;;;;;;;;5000050;28;20046;-88
2023/04/07 07:34:14;;;;;;;20.38;16.25;;;;;;;;;;4993134;28;20035;-88
2023/04/07 07:36:40;;;;;;;19.15;16.92;;;;;;;;;;4997462;28;20073;-88
2023/04/07 07:39:07;;;;;;;21.45;16.63;;;;;;;;;;4978149;28;20054;-87
2023/04/07 07:41:33;;;;;;;18.92;16.80;;;;;;;;;;5010337;28;20098;-85
2023/04/07 07:43:59;;;;;;;20.20;16.77;;;;;;;;;;5010056;28;20053;-87
2023/04/07 07:46:26;;;;;;;19.52;16.80;;;;;;;;;;5005005;28;20046;-89
2023/04/07 07:48:52;;;;;;;19.85;17.00;;;;;;;;;;4999551;28;20046;-87
2023/04/07 07:51:18;;;;;;;21.27;16.23;;;;;;;;;;4999156;28;20495;-87
2023/04/07 07:53:45;;;;;;;19.60;16.38;;;;;;;;;;4980825;28;20061;-88
2023/04/07 07:56:11;;;;;;;19.50;17.23;;;;;;;;;;5004362;28;20093;-87
2023/04/07 07:58:37;;;;;;;21.38;17.88;;;;;;;;;;5006242;28;20054;-88
2023/04/07 08:01:03;;;;;;;21.73;17.38;;;;;;;;;;5003362;28;21296;-88
2023/04/07 08:03:29;;;;;;;18.33;16.02;;;;;;;;;;5005854;28;20054;-87
2023/04/07 08:05:55;;;;;;;19.80;17.65;;;;;;;;;;5005142;28;20093;-87
2023/04/07 08:08:21;;;;;;;19.83;16.02;;;;;;;;;;5004356;28;20499;-88
2023/04/07 08:10:48;;;;;;;18.83;16.83;;;;;;;;;;5005177;28;20090;-87
2023/04/07 08:13:14;;;;;;;21.95;16.55;;;;;;;;;;5000929;28;20073;-88
2023/04/07 08:15:40;;;;;;;19.60;17.50;;;;;;;;;;5004272;28;20084;-89
2023/04/07 08:18:06;;;;;;;19.83;17.08;;;;;;;;;;5005254;28;20050;-88
2023/04/07 08:20:33;;;;;;;20.52;16.70;;;;;;;;;;5001920;28;20432;-87
2023/04/07 08:23:00;;;;;;;20.60;18.15;;;;;;;;;;5004987;28;20050;-88
2023/04/07 08:25:27;;;;;;;21.02;16.88;;;;;;;;;;5002618;28;20038;-88
2023/04/07 08:27:53;;;;;;;20.20;16.88;;;;;;;;;;5002697;28;20413;-88
2023/04/07 08:30:20;;;;;;;20.92;17.98;;;;;;;;;;5003433;28;20038;-87
2023/04/07 08:32:46;;;;;;;20.92;18.17;;;;;;;;;;5004054;28;20042;-88
2023/04/07 08:35:12;;;;;;;20.50;17.85;;;;;;;;;;5002845;28;20400;-87
2023/04/07 08:37:40;;;;;;;20.75;17.70;;;;;;;;;;4993850;28;20045;-87
2023/04/07 08:40:06;;;;;;;20.10;17.17;;;;;;;;;;4985435;28;20496;-88
2023/04/07 08:42:33;;;;;;;20.55;17.83;;;;;;;;;;4998012;28;20061;-87
2023/04/07 08:45:04;;;;;;;20.08;17.15;;;;;;;;;;4999625;28;20545;-87
2023/04/07 08:47:32;;;;;;;20.50;17.48;;;;;;;;;;4997156;28;20054;-87
2023/04/07 08:50:01;;;;;;;20.80;17.38;;;;;;;;;;5002089;28;20054;-87
2023/04/07 08:52:33;;;;;;;19.90;17.52;;;;;;;;;;4999764;28;20042;-87
2023/04/07 08:55:01;;;;;;;18.55;16.27;;;;;;;;;;5001795;28;20081;-87
2023/04/07 08:57:31;;;;;;;17.77;15.93;;;;;;;;;;4997276;28;20050;-88
2023/04/07 09:00:01;;;;;;;18.65;15.45;;;;;;;;;;4998138;28;20058;-87
2023/04/07 09:02:27;;;;;;;18.60;15.57;;;;;;;;;;4996881;28;20057;-86
2023/04/07 09:04:53;;;;;;;16.13;14.20;;;;;;;;;;4999254;28;20416;-87
2023/04/07 09:07:19;;;;;;;17.45;15.20;;;;;;;;;;5003666;28;20038;-87
2023/04/07 09:09:46;;;;;;;17.75;14.70;;;;;;;;;;5000546;28;20141;-85
2023/04/07 09:12:12;;;;;;;17.17;13.77;;;;;;;;;;4996155;28;20688;-85
2023/04/07 09:14:38;;;;;;;15.60;13.80;;;;;;;;;;4995843;28;20054;-85
2023/04/07 09:17:04;;;;;;;14.70;12.13;;;;;;;;;;5002232;28;20038;-87
2023/04/07 09:19:31;;;;;;;15.85;12.90;;;;;;;;;;5003164;28;20046;-88
2023/04/07 09:21:57;;;;;;;16.45;11.90;;;;;;;;;;5000590;28;20042;-86
2023/04/07 09:24:25;;;;;;;12.80;11.10;;;;;;;;;;4999981;28;20043;-87
2023/04/07 09:26:51;;;;;;;13.32;10.98;;;;;;;;;;5005403;28;20066;-87
2023/04/07 09:29:19;;;;;;;17.20;12.85;;;;;;;;;;5003369;28;20085;-87
2023/04/07 09:31:47;;;;;;;17.35;13.05;;;;;;;;;;5002640;28;20109;-87
2023/04/07 09:34:23;;;;;;;16.00;14.07;;;;;;;;;;5000959;28;20066;-86
2023/04/07 09:36:50;;;;;;;19.33;15.40;;;;;;;;;;5003564;28;20046;-86
2023/04/07 09:39:16;;;;;;;17.92;15.98;;;;;;;;;;5005151;28;20097;-83
2023/04/07 09:41:42;;;;;;;17.25;14.68;;;;;;;;;;4998455;28;20053;-86
2023/04/07 09:44:09;;;;;;;16.50;14.48;;;;;;;;;;5000282;28;21913;-85
2023/04/07 09:46:36;;;;;;;16.30;14.30;;;;;;;;;;5001079;28;20078;-85
2023/04/07 09:49:07;;;;;;;19.23;16.20;;;;;;;;;;5001950;28;20039;-86
2023/04/07 09:51:33;;;;;;;18.55;15.65;;;;;;;;;;5003065;28;20058;-85
2023/04/07 09:53:59;;;;;;;16.52;13.10;;;;;;;;;;5001441;28;20078;-85
2023/04/07 09:56:26;;;;;;;21.17;13.65;;;;;;;;;;5000386;28;20065;-85
2023/04/07 09:58:52;;;;;;;15.15;13.07;;;;;;;;;;4995428;28;20038;-86
2023/04/07 10:01:19;;;;;;;19.65;12.13;;;;;;;;;;4997641;28;20039;-86
2023/04/07 10:03:46;;;;;;;15.85;12.65;;;;;;;;;;4998601;28;20034;-86
2023/04/07 10:06:12;;;;;;;15.02;12.80;;;;;;;;;;4998059;28;20058;-85
2023/04/07 10:08:40;;;;;;;15.52;12.85;;;;;;;;;;4995530;28;20038;-86
2023/04/07 10:11:07;;;;;;;15.18;13.02;;;;;;;;;;4994396;28;20133;-85
2023/04/07 10:13:36;;;;;;;15.05;12.70;;;;;;;;;;5002087;28;20042;-85
2023/04/07 10:16:04;;;;;;;14.60;12.15;;;;;;;;;;5005604;28;20042;-86
2023/04/07 10:18:31;;;;;;;15.32;13.00;;;;;;;;;;5006980;28;20069;-86
2023/04/07 10:21:02;;;;;;;14.40;11.60;;;;;;;;;;5001383;28;20061;-86
2023/04/07 10:23:37;;;;;;;13.73;11.80;;;;;;;;;;4995914;28;20046;-85
2023/04/07 10:26:04;;;;;;;14.05;11.27;;;;;;;;;;5003625;28;20081;-86
2023/04/07 10:28:31;;;;;;;12.88;11.25;;;;;;;;;;5003987;28;20050;-87
2023/04/07 10:30:58;;;;;;;12.60;10.70;;;;;;;;;;5000805;28;20047;-86
2023/04/07 10:33:44;;;;;;;11.98;10.15;;;;;;;;;;5000255;28;20045;-87
2023/04/07 10:36:10;;;;;;;12.13;9.95;;;;;;;;;;5001491;28;20100;-86
2023/04/07 10:38:36;;;;;;;12.95;9.70;;;;;;;;;;4999690;28;20052;-86
2023/04/07 10:41:22;;;;;;;14.32;10.50;;;;;;;;;;5001185;28;20058;-86
2023/04/07 10:43:48;;;;;;;12.52;10.82;;;;;;;;;;4999334;28;20069;-86
2023/04/07 10:46:14;;;;;;;13.32;10.05;;;;;;;;;;5000000;28;20061;-85
2023/04/07 10:48:40;;;;;;;12.43;10.30;;;;;;;;;;5000828;28;20074;-86
2023/04/07 10:51:09;;;;;;;12.20;10.27;;;;;;;;;;4998446;28;20076;-85
2023/04/07 10:53:35;;;;;;;12.82;10.50;;;;;;;;;;4992035;28;20043;-85
2023/04/07 10:56:01;;;;;;;10.95;9.40;;;;;;;;;;4978389;28;20058;-86
2023/04/07 10:58:31;;;;;;;12.25;9.93;;;;;;;;;;5002177;28;20046;-86
2023/04/07 11:01:03;;;;;;;10.50;8.55;;;;;;;;;;5000101;28;20117;-84
2023/04/07 11:03:33;;;;;;;10.55;8.35;;;;;;;;;;4998859;28;20050;-86
2023/04/07 11:06:07;;;;;;;12.90;8.60;;;;;;;;;;5002324;28;20049;-87
2023/04/07 11:08:41;;;;;;;9.85;7.57;;;;;;;;;;5002719;28;20082;-86
2023/04/07 11:11:08;;;;;;;9.40;7.50;;;;;;;;;;5001743;28;20057;-85
2023/04/07 11:13:41;;;;;;;10.52;7.95;;;;;;;;;;5001835;28;20046;-85
2023/04/07 11:16:07;;;;;;;10.73;8.27;;;;;;;;;;4985380;28;20058;-86
2023/04/07 11:18:33;;;;;;;9.77;7.90;;;;;;;;;;4983526;28;20157;-86
2023/04/07 11:21:00;;;;;;;10.38;7.70;;;;;;;;;;4984944;28;20053;-86
2023/04/07 11:23:27;;;;;;;10.18;8.32;;;;;;;;;;4999762;28;20101;-86
2023/04/07 11:26:01;;;;;;;9.20;7.13;;;;;;;;;;5012994;28;20752;-86
2023/04/07 11:28:28;;;;;;;9.15;7.65;;;;;;;;;;4988215;28;20043;-86
2023/04/07 11:30:55;;;;;;;9.85;8.20;;;;;;;;;;4999192;28;20508;-85
2023/04/07 11:33:22;;;;;;;10.30;8.50;;;;;;;;;;5000195;28;20042;-85
2023/04/07 11:35:54;;;;;;;9.85;8.15;;;;;;;;;;4999531;28;20050;-85
2023/04/07 11:38:20;;;;;;;13.23;8.27;;;;;;;;;;5001426;28;20135;-86
2023/04/07 11:40:47;;;;;;;10.38;7.70;;;;;;;;;;4972402;28;20043;-86
2023/04/07 11:43:20;;;;;;;11.02;7.45;;;;;;;;;;4991229;28;20078;-86
2023/04/07 11:45:47;;;;;;;10.73;7.10;;;;;;;;;;4978856;28;20508;-86
2023/04/07 11:48:26;;;;;;;9.48;7.40;;;;;;;;;;4980207;28;20047;-85
2023/04/07 11:50:52;;;;;;;9.85;7.80;;;;;;;;;;4995468;28;20054;-86
2023/04/07 11:53:29;;;;;;;10.73;7.32;;;;;;;;;;4982662;28;20133;-86
2023/04/07 11:56:02;;;;;;;8.65;6.50;;;;;;;;;;5001362;28;20039;-85
2023/04/07 11:58:28;;;;;;;9.43;6.93;;;;;;;;;;5001784;28;20124;-86
2023/04/07 12:00:56;;;;;;;9.07;6.35;;;;;;;;;;4993853;28;20050;-86
2023/04/07 12:03:22;;;;;;;10.43;6.95;;;;;;;;;;5000483;28;20069;-86
2023/04/07 12:05:48;;;;;;;9.13;6.75;;;;;;;;;;4972813;28;20053;-86
2023/04/07 12:08:15;;;;;;;9.50;7.22;;;;;;;;;;4987154;28;20042;-86
2023/04/07 12:10:41;;;;;;;10.07;6.30;;;;;;;;;;4983558;28;20085;-85
2023/04/07 12:13:08;;;;;;;8.95;6.70;;;;;;;;;;5002415;28;20149;-86
2023/04/07 12:15:38;;;;;;;8.93;6.38;;;;;;;;;;4997570;28;20401;-86
2023/04/07 12:18:04;;;;;;;8.75;6.35;;;;;;;;;;5000361;28;20117;-86
2023/04/07 12:20:30;;;;;;;9.07;6.38;;;;;;;;;;5001919;28;20056;-86
2023/04/07 12:22:57;;;;;;;10.95;6.90;;;;;;;;;;4999493;28;20064;-86
2023/04/07 12:25:23;;;;;;;10.18;6.80;;;;;;;;;;4977834;28;20105;-85
2023/04/07 12:27:49;;;;;;;9.30;6.63;;;;;;;;;;5002538;28;20046;-85
2023/04/07 12:30:16;;;;;;;10.27;6.90;;;;;;;;;;5000273;28;20077;-86
2023/04/07 12:32:42;;;;;;;9.20;6.65;;;;;;;;;;4998960;28;20057;-85
2023/04/07 12:35:08;;;;;;;8.25;6.50;;;;;;;;;;4985046;28;20050;-86
2023/04/07 12:37:34;;;;;;;8.45;6.78;;;;;;;;;;4995352;28;20121;-85
2023/04/07 12:40:00;;;;;;;8.57;6.80;;;;;;;;;;4981517;28;20369;-85
2023/04/07 12:42:26;;;;;;;8.68;6.63;;;;;;;;;;4986968;28;20076;-86
2023/04/07 12:44:52;;;;;;;8.27;6.70;;;;;;;;;;5002353;28;20142;-86
2023/04/07 12:47:18;;;;;;;9.40;7.00;;;;;;;;;;5015248;28;20110;-83
2023/04/07 12:49:45;;;;;;;8.30;6.78;;;;;;;;;;4985179;28;20069;-82
2023/04/07 12:52:11;;;;;;;9.13;6.75;;;;;;;;;;4995668;28;20077;-85
2023/04/07 12:54:38;;;;;;;9.00;6.95;;;;;;;;;;5004272;28;20560;-87
2023/04/07 12:57:04;;;;;;;9.23;7.03;;;;;;;;;;5004733;28;20042;-88
2023/04/07 12:59:30;;;;;;;8.80;6.95;;;;;;;;;;5004510;28;20374;-85
2023/04/07 13:01:56;;;;;;;9.40;7.47;;;;;;;;;;4978947;28;20051;-86
2023/04/07 13:04:23;;;;;;;9.13;6.75;;;;;;;;;;4986961;28;20046;-87
2023/04/07 13:06:50;;;;;;;9.52;7.00;;;;;;;;;;5003555;28;20097;-83
2023/04/07 13:09:16;;;;;;;8.68;7.05;;;;;;;;;;5003847;28;20397;-86
2023/04/07 13:11:42;;;;;;;8.45;7.10;;;;;;;;;;4994707;28;20081;-87
2023/04/07 13:14:08;;;;;;;10.40;6.97;;;;;;;;;;5003798;28;20050;-86
2023/04/07 13:16:34;;;;;;;10.75;6.95;;;;;;;;;;5002521;28;20157;-87
2023/04/07 13:19:00;;;;;;;11.68;7.85;;;;;;;;;;4967604;28;20042;-86
2023/04/07 13:21:27;;;;;;;8.95;7.20;;;;;;;;;;4995647;28;20050;-87
2023/04/07 13:23:53;;;;;;;9.35;7.20;;;;;;;;;;5003637;28;20085;-86
2023/04/07 13:26:19;;;;;;;8.50;7.30;;;;;;;;;;4987403;28;20065;-86
2023/04/07 13:28:46;;;;;;;8.80;7.18;;;;;;;;;;4996098;28;20093;-85
2023/04/07 13:31:14;;;;;;;9.25;8.25;;;;;;;;;;4980048;28;20053;-86
2023/04/07 13:33:41;;;;;;;9.85;7.55;;;;;;;;;;4992170;28;20082;-86
2023/04/07 13:36:07;;;;;;;9.73;7.57;;;;;;;;;;4994473;28;20492;-85
2023/04/07 13:38:33;;;;;;;9.05;7.93;;;;;;;;;;4981326;28;20093;-86
2023/04/07 13:40:59;;;;;;;10.13;8.02;;;;;;;;;;5004928;28;20073;-86
2023/04/07 13:43:25;;;;;;;9.55;8.13;;;;;;;;;;5001351;28;20078;-85
2023/04/07 13:45:51;;;;;;;9.57;8.18;;;;;;;;;;5003016;28;20412;-86
2023/04/07 13:48:17;;;;;;;10.77;8.65;;;;;;;;;;5004800;28;20175;-85
2023/04/07 13:50:44;;;;;;;10.50;8.73;;;;;;;;;;4983373;28;20408;-85
2023/04/07 13:53:10;;;;;;;9.57;8.23;;;;;;;;;;4986625;28;20120;-85
2023/04/07 13:55:36;;;;;;;9.23;8.02;;;;;;;;;;5002579;28;20046;-86
2023/04/07 13:58:02;;;;;;;9.93;8.70;;;;;;;;;;5001276;28;20102;-86
2023/04/07 14:00:28;;;;;;;13.70;9.15;;;;;;;;;;4986580;28;20050;-86
2023/04/07 14:02:54;;;;;;;11.18;8.95;;;;;;;;;;4999971;28;20448;-87
2023/04/07 14:05:21;;;;;;;10.48;8.55;;;;;;;;;;5000502;28;20054;-86
2023/04/07 14:07:47;;;;;;;12.63;9.70;;;;;;;;;;4999862;28;20050;-86
2023/04/07 14:10:13;;;;;;;10.25;8.93;;;;;;;;;;5000507;28;20054;-86
2023/04/07 14:12:40;;;;;;;13.27;10.20;;;;;;;;;;4985544;28;20046;-86
2023/04/07 14:15:06;;;;;;;12.25;9.65;;;;;;;;;;4987135;28;20057;-86
2023/04/07 14:17:32;;;;;;;11.68;10.48;;;;;;;;;;4967002;28;20051;-87
2023/04/07 14:19:58;;;;;;;12.50;10.82;;;;;;;;;;4968810;28;20057;-86